createdAt,value
2018-05-10T00:00:53.272Z,61.05
2018-05-10T00:01:53.241Z,60.57
2018-05-10T00:02:53.518Z,60.4
2018-05-10T00:03:53.254Z,60.4
2018-05-10T00:04:53.511Z,60.31
2018-05-10T00:05:53.569Z,60.6
2018-05-10T00:06:53.232Z,60.5
2018-05-10T00:07:53.710Z,60.69
2018-05-10T00:08:53.237Z,60.5
2018-05-10T00:09:53.239Z,60.31
2018-05-10T00:10:53.510Z,60.4
2018-05-10T00:11:53.509Z,60.31
2018-05-10T00:12:53.523Z,60.11
2018-05-10T00:13:53.291Z,59.54
2018-05-10T00:14:53.495Z,59.64
2018-05-10T00:15:53.555Z,59.64
2018-05-10T00:16:53.519Z,59.83
2018-05-10T00:17:53.513Z,59.34
2018-05-10T00:18:53.508Z,59.34
2018-05-10T00:19:53.269Z,59.73
2018-05-10T00:20:53.526Z,59.34
2018-05-10T00:21:53.547Z,58.96
2018-05-10T00:22:53.247Z,58.87
2018-05-10T00:23:53.523Z,59.06
2018-05-10T00:24:53.259Z,58.96
2018-05-10T00:25:53.313Z,59.25
2018-05-10T00:26:53.281Z,59.34
2018-05-10T00:27:53.258Z,59.25
2018-05-10T00:28:53.529Z,59.34
2018-05-10T00:29:53.515Z,58.87
2018-05-10T00:30:53.527Z,59.25
2018-05-10T00:31:53.522Z,59.25
2018-05-10T00:32:53.249Z,59.34
2018-05-10T00:33:53.554Z,59.64
2018-05-10T00:34:53.256Z,59.54
2018-05-10T00:35:53.269Z,59.64
2018-05-10T00:36:53.519Z,59.34
2018-05-10T00:37:53.530Z,59.34
2018-05-10T00:38:53.256Z,59.34
2018-05-10T00:39:53.515Z,59.64
2018-05-10T00:40:53.261Z,59.54
2018-05-10T00:41:53.524Z,59.73
2018-05-10T00:42:53.536Z,59.44
2018-05-10T00:43:53.526Z,59.92
2018-05-10T00:44:53.536Z,60.02
2018-05-10T00:45:53.520Z,59.73
2018-05-10T00:46:53.274Z,60.02
2018-05-10T00:47:53.528Z,59.92
2018-05-10T00:48:53.526Z,60.02
2018-05-10T00:49:53.529Z,60.5
2018-05-10T00:50:53.521Z,60.18
2018-05-10T00:51:53.265Z,60.31
2018-05-10T00:52:53.276Z,60.66
2018-05-10T00:53:53.272Z,60.66
2018-05-10T00:54:53.546Z,60.66
2018-05-10T00:55:53.529Z,60.69
2018-05-10T00:56:53.276Z,60.78
2018-05-10T00:57:53.294Z,60.95
2018-05-10T00:58:53.540Z,61.14
2018-05-10T00:59:53.286Z,61.14
2018-05-10T01:00:53.537Z,61.43
2018-05-10T01:01:53.553Z,62.1
2018-05-10T01:02:53.533Z,61.52
2018-05-10T01:03:53.280Z,61.81
2018-05-10T01:04:53.314Z,61.81
2018-05-10T01:05:53.276Z,61.91
2018-05-10T01:06:53.547Z,62.01
2018-05-10T01:07:53.544Z,62.1
2018-05-10T01:08:53.283Z,62.29
2018-05-10T01:09:53.547Z,62.19
2018-05-10T01:10:53.549Z,62.68
2018-05-10T01:11:53.548Z,62.68
2018-05-10T01:12:53.553Z,62.68
2018-05-10T01:13:53.544Z,62.68
2018-05-10T01:14:53.546Z,62.29
2018-05-10T01:15:53.760Z,62.87
2018-05-10T01:16:53.776Z,62.96
2018-05-10T01:17:53.300Z,62.39
2018-05-10T01:18:53.552Z,62.77
2018-05-10T01:19:53.565Z,63.16
2018-05-10T01:20:53.562Z,63.51
2018-05-10T01:21:53.556Z,63.7
2018-05-10T01:22:53.561Z,64.09
2018-05-10T01:23:53.558Z,63.99
2018-05-10T01:24:53.609Z,63.99
2018-05-10T01:25:53.581Z,63.89
2018-05-10T01:26:53.563Z,63.89
2018-05-10T01:27:53.313Z,63.7
2018-05-10T01:28:53.567Z,63.99
2018-05-10T01:29:53.561Z,64.37
2018-05-10T01:30:53.574Z,64.47
2018-05-10T01:31:53.573Z,64.56
2018-05-10T01:32:53.574Z,64.66
2018-05-10T01:33:53.568Z,64.76
2018-05-10T01:34:53.572Z,65.14
2018-05-10T01:35:53.656Z,65.14
2018-05-10T01:36:53.313Z,64.47
2018-05-10T01:37:53.571Z,64.56
2018-05-10T01:38:53.577Z,64.66
2018-05-10T01:39:53.571Z,64.95
2018-05-10T01:40:53.386Z,65.14
2018-05-10T01:41:53.577Z,64.56
2018-05-10T01:42:53.344Z,64.47
2018-05-10T01:43:53.349Z,64.66
2018-05-10T01:44:53.570Z,64.85
2018-05-10T01:45:53.634Z,64.85
2018-05-10T01:46:53.573Z,65.05
2018-05-10T01:47:53.575Z,65.14
2018-05-10T01:48:53.600Z,65.23
2018-05-10T01:49:53.577Z,65.43
2018-05-10T01:50:53.579Z,65.23
2018-05-10T01:51:53.576Z,65.05
2018-05-10T01:52:53.577Z,64.95
2018-05-10T01:53:53.578Z,64.76
2018-05-10T01:54:53.576Z,64.85
2018-05-10T01:55:53.318Z,64.56
2018-05-10T01:56:53.579Z,64.66
2018-05-10T01:57:53.579Z,64.47
2018-05-10T01:58:53.584Z,64.47
2018-05-10T01:59:53.580Z,64.47
2018-05-10T02:00:53.578Z,63.99
2018-05-10T02:01:53.329Z,64.28
2018-05-10T02:02:53.585Z,64.76
2018-05-10T02:03:53.325Z,65.23
2018-05-10T02:04:53.580Z,65.33
2018-05-10T02:05:53.333Z,64.95
2018-05-10T02:06:53.322Z,65.33
2018-05-10T02:07:53.586Z,65.72
2018-05-10T02:08:53.580Z,65.78
2018-05-10T02:09:53.635Z,65.88
2018-05-10T02:10:53.608Z,65.78
2018-05-10T02:11:53.584Z,66.55
2018-05-10T02:12:53.587Z,66.64
2018-05-10T02:13:53.589Z,66.55
2018-05-10T02:14:53.671Z,66.35
2018-05-10T02:15:53.622Z,66.55
2018-05-10T02:16:53.612Z,66.26
2018-05-10T02:17:53.688Z,66.35
2018-05-10T02:18:53.339Z,66.55
2018-05-10T02:19:53.349Z,66.35
2018-05-10T02:20:53.687Z,66.74
2018-05-10T02:21:53.592Z,66.74
2018-05-10T02:22:53.609Z,66.64
2018-05-10T02:23:53.595Z,66.74
2018-05-10T02:24:53.340Z,67.12
2018-05-10T02:25:53.382Z,66.99
2018-05-10T02:26:53.610Z,66.51
2018-05-10T02:27:53.348Z,66.51
2018-05-10T02:28:53.618Z,66.55
2018-05-10T02:29:53.339Z,65.97
2018-05-10T02:30:53.611Z,65.78
2018-05-10T02:31:53.624Z,65.88
2018-05-10T02:32:53.592Z,65.49
2018-05-10T02:33:53.346Z,65.59
2018-05-10T02:34:53.324Z,65.97
2018-05-10T02:35:53.401Z,65.78
2018-05-10T02:36:53.601Z,66.55
2018-05-10T02:37:53.352Z,66.89
2018-05-10T02:38:53.600Z,67.28
2018-05-10T02:39:53.343Z,68.05
2018-05-10T02:40:53.514Z,68.33
2018-05-10T02:41:53.600Z,68.62
2018-05-10T02:42:53.597Z,68.43
2018-05-10T02:43:53.606Z,68.33
2018-05-10T02:44:53.354Z,68.24
2018-05-10T02:45:53.357Z,68.81
2018-05-10T02:46:53.339Z,68.72
2018-05-10T02:47:53.611Z,68.62
2018-05-10T02:48:53.604Z,68.43
2018-05-10T02:49:53.344Z,68.33
2018-05-10T02:50:53.641Z,68.62
2018-05-10T02:51:53.348Z,68.43
2018-05-10T02:52:53.335Z,68.43
2018-05-10T02:53:53.356Z,68.72
2018-05-10T02:54:53.331Z,69.01
2018-05-10T02:55:53.433Z,68.72
2018-05-10T02:56:53.355Z,68.81
2018-05-10T02:57:53.658Z,68.81
2018-05-10T02:58:53.597Z,68.62
2018-05-10T02:59:53.617Z,68.62
2018-05-10T03:00:53.417Z,68.81
2018-05-10T03:01:53.604Z,68.05
2018-05-10T03:02:53.642Z,68.43
2018-05-10T03:03:53.608Z,68.14
2018-05-10T03:04:53.363Z,68.62
2018-05-10T03:05:53.354Z,68.62
2018-05-10T03:06:53.612Z,68.72
2018-05-10T03:07:53.615Z,68.81
2018-05-10T03:08:53.338Z,68.72
2018-05-10T03:09:53.384Z,68.72
2018-05-10T03:10:53.638Z,68.52
2018-05-10T03:11:53.638Z,68.62
2018-05-10T03:12:53.611Z,68.62
2018-05-10T03:13:53.610Z,69.1
2018-05-10T03:14:53.325Z,69.48
2018-05-10T03:15:53.604Z,69.01
2018-05-10T03:16:53.336Z,69.2
2018-05-10T03:17:53.352Z,69.1
2018-05-10T03:18:53.340Z,69.2
2018-05-10T03:19:53.622Z,69.01
2018-05-10T03:20:53.669Z,69.2
2018-05-10T03:21:53.603Z,69.1
2018-05-10T03:22:53.604Z,68.91
2018-05-10T03:23:53.596Z,68.91
2018-05-10T03:24:53.344Z,68.81
2018-05-10T03:25:53.340Z,68.72
2018-05-10T03:26:53.595Z,69.2
2018-05-10T03:27:53.631Z,69.01
2018-05-10T03:28:53.601Z,69.2
2018-05-10T03:29:53.364Z,69.2
2018-05-10T03:30:53.403Z,69.2
2018-05-10T03:31:53.621Z,68.81
2018-05-10T03:32:53.626Z,69.1
2018-05-10T03:33:53.623Z,69.29
2018-05-10T03:34:53.626Z,69.29
2018-05-10T03:35:53.345Z,69.48
2018-05-10T03:36:53.340Z,69.58
2018-05-10T03:37:53.625Z,69.77
2018-05-10T03:38:53.617Z,69.77
2018-05-10T03:39:53.615Z,70.06
2018-05-10T03:40:53.679Z,70.44
2018-05-10T03:41:53.617Z,70.54
2018-05-10T03:42:53.631Z,70.35
2018-05-10T03:43:53.369Z,70.35
2018-05-10T03:44:53.337Z,69.87
2018-05-10T03:45:53.377Z,69.77
2018-05-10T03:46:53.337Z,69.87
2018-05-10T03:47:53.591Z,69.87
2018-05-10T03:48:53.597Z,69.77
2018-05-10T03:49:53.609Z,70.35
2018-05-10T03:50:53.626Z,70.35
2018-05-10T03:51:53.595Z,70.25
2018-05-10T03:52:53.374Z,70.25
2018-05-10T03:53:53.354Z,70.25
2018-05-10T03:54:53.361Z,69.87
2018-05-10T03:55:53.609Z,69.96
2018-05-10T03:56:53.363Z,70.06
2018-05-10T03:57:53.611Z,69.87
2018-05-10T03:58:53.351Z,70.35
2018-05-10T03:59:53.604Z,70.25
2018-05-10T04:00:53.616Z,70.35
2018-05-10T04:01:53.607Z,70.35
2018-05-10T04:02:53.379Z,70.44
2018-05-10T04:03:53.642Z,70.35
2018-05-10T04:04:53.636Z,70.54
2018-05-10T04:05:53.698Z,70.54
2018-05-10T04:06:53.357Z,69.96
2018-05-10T04:07:53.602Z,69.87
2018-05-10T04:08:53.616Z,70.06
2018-05-10T04:09:53.624Z,69.77
2018-05-10T04:10:53.675Z,70.25
2018-05-10T04:11:53.345Z,69.77
2018-05-10T04:12:53.617Z,69.81
2018-05-10T04:13:53.610Z,69.81
2018-05-10T04:14:53.369Z,69.9
2018-05-10T04:15:53.416Z,70.19
2018-05-10T04:16:53.641Z,70.29
2018-05-10T04:17:53.612Z,69.71
2018-05-10T04:18:53.606Z,69.52
2018-05-10T04:19:53.611Z,69.71
2018-05-10T04:20:53.684Z,69.62
2018-05-10T04:21:53.613Z,69.68
2018-05-10T04:22:53.385Z,69.68
2018-05-10T04:23:53.612Z,69.68
2018-05-10T04:24:53.352Z,69.33
2018-05-10T04:25:53.664Z,69.23
2018-05-10T04:26:53.355Z,69.42
2018-05-10T04:27:53.448Z,69.13
2018-05-10T04:28:53.357Z,69.13
2018-05-10T04:29:53.610Z,69.13
2018-05-10T04:30:53.612Z,68.66
2018-05-10T04:31:53.614Z,68.66
2018-05-10T04:32:53.349Z,68.21
2018-05-10T04:33:53.612Z,68.02
2018-05-10T04:34:53.629Z,68.3
2018-05-10T04:35:53.789Z,67.92
2018-05-10T04:36:53.354Z,67.63
2018-05-10T04:37:53.638Z,67.16
2018-05-10T04:38:53.638Z,67.63
2018-05-10T04:39:53.639Z,67.44
2018-05-10T04:40:53.370Z,66.86
2018-05-10T04:41:53.373Z,66.58
2018-05-10T04:42:53.375Z,66.1
2018-05-10T04:43:53.623Z,66.58
2018-05-10T04:44:53.619Z,66.86
2018-05-10T04:45:53.684Z,66.39
2018-05-10T04:46:53.632Z,66.39
2018-05-10T04:47:53.622Z,66.58
2018-05-10T04:48:53.631Z,66.67
2018-05-10T04:49:54.429Z,66.42
2018-05-10T04:50:53.631Z,66.39
2018-05-10T04:51:53.642Z,65.84
2018-05-10T04:52:53.380Z,65.94
2018-05-10T04:53:53.368Z,65.36
2018-05-10T04:54:53.790Z,65.17
2018-05-10T04:55:53.630Z,64.79
2018-05-10T04:56:53.406Z,64.02
2018-05-10T04:57:53.648Z,63.67
2018-05-10T04:58:53.634Z,63.76
2018-05-10T04:59:53.638Z,63.28
2018-05-10T05:00:53.660Z,63.09
2018-05-10T05:01:53.379Z,62.71
2018-05-10T05:02:53.650Z,62.52
2018-05-10T05:03:53.381Z,62.26
2018-05-10T05:04:53.642Z,61.78
2018-05-10T05:05:53.640Z,61.87
2018-05-10T05:06:53.388Z,60.82
2018-05-10T05:07:53.390Z,60.53
2018-05-10T05:08:53.800Z,60.34
2018-05-10T05:09:53.653Z,60.24
2018-05-10T05:10:53.701Z,60.63
2018-05-10T05:11:53.714Z,60.24
2018-05-10T05:12:53.678Z,60.72
2018-05-10T05:13:53.657Z,60.82
2018-05-10T05:14:53.656Z,61.2
2018-05-10T05:15:53.662Z,61.4
2018-05-10T05:16:53.668Z,61.97
2018-05-10T05:17:53.662Z,61.97
2018-05-10T05:18:53.668Z,61.97
2018-05-10T05:19:53.668Z,62.55
2018-05-10T05:20:53.682Z,62.55
2018-05-10T05:21:53.417Z,61.87
2018-05-10T05:22:53.670Z,62.16
2018-05-10T05:23:53.672Z,62.07
2018-05-10T05:24:53.442Z,62.35
2018-05-10T05:25:53.494Z,62.35
2018-05-10T05:26:53.430Z,62.16
2018-05-10T05:27:53.683Z,61.68
2018-05-10T05:28:53.693Z,61.78
2018-05-10T05:29:53.425Z,61.3
2018-05-10T05:30:53.506Z,60.72
2018-05-10T05:31:53.691Z,59.5
2018-05-10T05:32:53.698Z,58.18
2018-05-10T05:33:53.701Z,56.77
2018-05-10T05:34:53.434Z,55.16
2018-05-10T05:35:53.437Z,53.67
2018-05-10T05:36:53.698Z,52.52
2018-05-10T05:37:53.445Z,51.2
2018-05-10T05:38:53.714Z,50.45
2018-05-10T05:39:53.456Z,50.28
2018-05-10T05:40:53.802Z,49.41
2018-05-10T05:41:53.460Z,48.66
2018-05-10T05:42:53.727Z,47.81
2018-05-10T05:43:53.743Z,47.05
2018-05-10T05:44:53.729Z,46.75
2018-05-10T05:45:53.731Z,46.3
2018-05-10T05:46:53.750Z,46.1
2018-05-10T05:47:53.774Z,45.81
2018-05-10T05:48:53.749Z,45.64
2018-05-10T05:49:53.779Z,44.38
2018-05-10T05:50:53.524Z,44.7
2018-05-10T05:51:53.773Z,44.79
2018-05-10T05:52:53.783Z,43.46
2018-05-10T05:53:53.785Z,42.78
2018-05-10T05:54:53.817Z,42.51
2018-05-10T05:55:53.887Z,41.76
2018-05-10T05:56:53.796Z,41.08
2018-05-10T05:57:53.827Z,41.08
2018-05-10T05:58:53.572Z,41.1
2018-05-10T05:59:53.602Z,41
2018-05-10T06:00:53.986Z,41.76
2018-05-10T06:01:53.854Z,41.86
2018-05-10T06:02:53.578Z,42.03
2018-05-10T06:03:53.583Z,43.17
2018-05-10T06:04:53.594Z,43.75
2018-05-10T06:05:53.927Z,44.02
2018-05-10T06:06:53.611Z,44.5
2018-05-10T06:07:53.899Z,44.98
2018-05-10T06:08:53.889Z,45.37
2018-05-10T06:09:53.653Z,45.16
2018-05-10T06:10:53.900Z,45.54
2018-05-10T06:11:53.898Z,45.35
2018-05-10T06:12:53.915Z,46.32
2018-05-10T06:13:53.911Z,46.12
2018-05-10T06:23:53.336Z,52.28
2018-05-10T06:24:53.564Z,52.95
2018-05-10T06:25:53.150Z,53.61
2018-05-10T06:26:53.057Z,53.7
2018-05-10T06:27:53.059Z,54.38
2018-05-10T06:28:53.079Z,55.22
2018-05-10T06:29:53.341Z,55.99
2018-05-10T06:30:53.410Z,56.09
2018-05-10T06:31:53.335Z,55.6
2018-05-10T06:32:53.330Z,56.35
2018-05-10T06:33:53.437Z,56.63
2018-05-10T06:34:53.343Z,56.54
2018-05-10T06:35:53.403Z,56.63
2018-05-10T06:36:53.366Z,57.02
2018-05-10T06:37:53.354Z,56.82
2018-05-10T06:38:53.091Z,57.21
2018-05-10T06:39:53.390Z,57.12
2018-05-10T06:40:53.115Z,57.02
2018-05-10T06:41:53.365Z,57.31
2018-05-10T06:42:53.383Z,57.31
2018-05-10T06:43:53.366Z,57.4
2018-05-10T06:44:53.121Z,57.69
2018-05-10T06:45:53.187Z,57.4
2018-05-10T06:46:53.575Z,57.5
2018-05-10T06:47:53.382Z,57.02
2018-05-10T06:48:53.388Z,57.31
2018-05-10T06:49:53.393Z,57.5
2018-05-10T06:50:53.167Z,57.6
2018-05-10T06:51:53.416Z,57.12
2018-05-10T06:52:53.164Z,57.6
2018-05-10T06:53:53.392Z,58.08
2018-05-10T06:54:53.394Z,58.37
2018-05-10T06:55:53.438Z,58.27
2018-05-10T06:56:53.401Z,57.89
2018-05-10T06:57:53.423Z,58.17
2018-05-10T06:58:53.408Z,58.27
2018-05-10T06:59:53.154Z,58.27
2018-05-10T07:00:53.207Z,58.27
2018-05-10T07:01:53.426Z,57.98
2018-05-10T07:02:53.425Z,58.17
2018-05-10T07:03:53.165Z,57.89
2018-05-10T07:04:53.424Z,58.08
2018-05-10T07:05:53.431Z,57.6
2018-05-10T07:06:53.443Z,56.82
2018-05-10T07:07:53.172Z,56.37
2018-05-10T07:08:53.433Z,54.76
2018-05-10T07:09:54.048Z,53.34
2018-05-10T07:10:53.498Z,51.63
2018-05-10T07:11:53.200Z,50.91
2018-05-10T07:12:53.458Z,48.61
2018-05-10T07:13:53.197Z,47.38
2018-05-10T07:14:53.457Z,47.02
2018-05-10T07:15:53.242Z,46.83
2018-05-10T07:16:53.467Z,46.66
2018-05-10T07:17:53.474Z,47.14
2018-05-10T07:18:53.476Z,47.31
2018-05-10T07:19:53.489Z,47.79
2018-05-10T07:20:53.540Z,47.11
2018-05-10T07:21:53.492Z,47.21
2018-05-10T07:22:53.504Z,46.75
2018-05-10T07:23:53.507Z,46.36
2018-05-10T07:24:53.507Z,45.98
2018-05-10T07:25:53.376Z,46.26
2018-05-10T07:26:53.269Z,46.26
2018-05-10T07:27:53.289Z,45.81
2018-05-10T07:28:53.531Z,45.32
2018-05-10T07:29:53.279Z,44.57
2018-05-10T07:30:53.539Z,43.52
2018-05-10T07:31:53.291Z,43.13
2018-05-10T07:32:53.650Z,42.55
2018-05-10T07:33:53.559Z,41.8
2018-05-10T07:34:53.573Z,41.58
2018-05-10T07:35:53.368Z,41.88
2018-05-10T07:36:53.578Z,43.31
2018-05-10T07:37:53.323Z,43.21
2018-05-10T07:38:53.587Z,42.92
2018-05-10T07:39:53.594Z,42.65
2018-05-10T07:40:53.421Z,41.78
2018-05-10T07:41:53.626Z,41.61
2018-05-10T07:42:53.617Z,40.75
2018-05-10T07:43:53.671Z,39.32
2018-05-10T07:44:53.630Z,38.46
2018-05-10T07:45:53.635Z,38.65
2018-05-10T07:46:53.639Z,38.85
2018-05-10T07:47:53.660Z,39.9
2018-05-10T07:48:53.647Z,40.66
2018-05-10T07:49:53.403Z,39.12
2018-05-10T07:50:53.490Z,36.61
2018-05-10T07:51:53.412Z,36.93
2018-05-10T07:52:53.699Z,37.12
2018-05-10T07:53:53.699Z,38.17
2018-05-10T07:54:53.436Z,38.65
2018-05-10T07:55:53.721Z,38.93
2018-05-10T07:56:53.455Z,39.01
2018-05-10T07:57:53.723Z,39.01
2018-05-10T07:58:53.512Z,38.79
2018-05-10T07:59:53.746Z,38.91
2018-05-10T08:00:53.735Z,40.15
2018-05-10T08:01:53.740Z,39.94
2018-05-10T08:02:53.752Z,40.52
2018-05-10T08:03:53.788Z,39.82
2018-05-10T08:04:53.780Z,41.56
2018-05-10T08:05:53.592Z,41.35
2018-05-10T08:06:53.511Z,41.74
2018-05-10T08:07:53.792Z,42.2
2018-05-10T08:08:53.790Z,43.75
2018-05-10T08:09:53.534Z,44.98
2018-05-10T08:10:53.797Z,45.83
2018-05-10T08:11:53.815Z,46.22
2018-05-10T08:12:53.817Z,46.2
2018-05-10T08:13:53.815Z,47.16
2018-05-10T08:14:53.827Z,49.17
2018-05-10T08:15:53.612Z,50.21
2018-05-10T08:16:53.938Z,50.59
2018-05-10T08:17:53.837Z,51.63
2018-05-10T08:18:53.839Z,51.92
2018-05-10T08:19:53.855Z,52.5
2018-05-10T08:20:53.878Z,52.4
2018-05-10T08:21:53.857Z,53.27
2018-05-10T08:22:53.608Z,53.34
2018-05-10T08:23:53.879Z,53.73
2018-05-10T08:24:53.873Z,53.44
2018-05-10T08:25:53.923Z,53.85
2018-05-10T08:26:53.889Z,53.63
2018-05-10T08:27:53.882Z,53.92
2018-05-10T08:28:53.628Z,53.73
2018-05-10T08:29:53.630Z,53.53
2018-05-10T08:30:53.709Z,53.44
2018-05-10T08:31:53.637Z,52.04
2018-05-10T08:32:53.935Z,50.43
2018-05-10T08:33:53.661Z,49.29
2018-05-10T08:34:53.913Z,49.19
2018-05-10T08:35:53.969Z,49.97
2018-05-10T08:36:54.064Z,50.33
2018-05-10T08:37:53.692Z,50.04
2018-05-10T08:38:53.935Z,49.27
2018-05-10T08:39:53.939Z,49.07
2018-05-10T08:40:53.974Z,49.17
2018-05-10T08:41:53.954Z,49.55
2018-05-10T08:42:53.692Z,49.85
2018-05-10T08:43:53.713Z,49.95
2018-05-10T08:44:53.733Z,49.27
2018-05-10T08:45:53.720Z,49.27
2018-05-10T08:46:53.976Z,49.27
2018-05-10T08:47:53.716Z,49.58
2018-05-10T08:48:53.986Z,50.35
2018-05-10T08:49:53.985Z,50.43
2018-05-10T08:50:53.999Z,51.13
2018-05-10T08:51:53.904Z,51.01
2018-05-10T08:52:53.744Z,50.91
2018-05-10T08:53:54.014Z,50.91
2018-05-10T08:54:54.010Z,51.87
2018-05-10T08:55:53.756Z,51.87
2018-05-10T08:56:53.752Z,51.59
2018-05-10T08:57:54.032Z,51.39
2018-05-10T08:58:54.087Z,52.26
2018-05-10T08:59:54.151Z,52.84
2018-05-10T09:00:54.110Z,53.49
2018-05-10T09:01:54.038Z,53.78
2018-05-10T09:02:53.787Z,54.65
2018-05-10T09:03:53.790Z,54.27
2018-05-10T09:04:54.053Z,54.07
2018-05-10T09:05:53.905Z,54.27
2018-05-10T09:06:54.068Z,54.84
2018-05-10T09:07:53.814Z,55.42
2018-05-10T09:08:54.101Z,55.62
2018-05-10T09:09:53.838Z,55.68
2018-05-10T09:10:54.093Z,56.56
2018-05-10T09:11:53.835Z,57.04
2018-05-10T09:12:54.097Z,57.39
2018-05-10T09:13:54.096Z,57.49
2018-05-10T09:14:54.102Z,58.55
2018-05-10T09:15:54.163Z,58.23
2018-05-10T09:16:54.113Z,58.81
2018-05-10T09:17:54.112Z,58.72
2018-05-10T09:18:54.110Z,58.72
2018-05-10T09:19:54.115Z,58.33
2018-05-10T09:20:54.165Z,59.1
2018-05-10T09:21:54.126Z,59.55
2018-05-10T09:22:53.875Z,60.32
2018-05-10T09:23:54.140Z,60.23
2018-05-10T09:24:54.140Z,60.32
2018-05-10T09:25:54.227Z,60.58
2018-05-10T09:26:54.141Z,61.07
2018-05-10T09:27:54.153Z,61.35
2018-05-10T09:28:53.949Z,62.32
2018-05-10T09:29:54.159Z,62.03
2018-05-10T09:30:54.207Z,62.12
2018-05-10T09:31:54.240Z,62.63
2018-05-10T09:32:54.166Z,63.02
2018-05-10T09:33:53.996Z,64.28
2018-05-10T09:34:54.191Z,65.33
2018-05-10T09:35:53.938Z,65.05
2018-05-10T09:36:54.180Z,64.86
2018-05-10T09:37:54.194Z,64.28
2018-05-10T09:38:53.928Z,65.69
2018-05-10T09:39:54.194Z,65.88
2018-05-10T09:40:54.271Z,66.85
2018-05-10T09:41:53.944Z,66.81
2018-05-10T09:42:53.944Z,67
2018-05-10T09:43:54.210Z,68.93
2018-05-10T09:44:54.043Z,67.74
2018-05-10T09:45:53.960Z,69.09
2018-05-10T09:46:54.223Z,69.57
2018-05-10T09:47:54.219Z,69.67
2018-05-10T09:48:54.223Z,69.09
2018-05-10T09:49:53.966Z,69.76
2018-05-10T09:50:54.284Z,70.68
2018-05-10T09:51:54.235Z,69.92
2018-05-10T09:52:54.235Z,69.34
2018-05-10T09:53:54.252Z,70.01
2018-05-10T09:54:54.248Z,70.21
2018-05-10T09:55:54.248Z,69.63
2018-05-10T09:56:54.247Z,69.73
2018-05-10T09:57:53.990Z,70.78
2018-05-10T09:58:54.249Z,71.46
2018-05-10T09:59:54.355Z,70.78
2018-05-10T10:00:54.267Z,70.3
2018-05-10T10:01:54.261Z,69.82
2018-05-10T10:02:54.020Z,70.4
2018-05-10T10:03:54.286Z,69.82
2018-05-10T10:04:54.266Z,68.86
2018-05-10T10:05:54.021Z,70.5
2018-05-10T10:06:54.025Z,69.92
2018-05-10T10:07:54.279Z,69.82
2018-05-10T10:08:54.283Z,70.4
2018-05-10T10:09:54.301Z,71.36
2018-05-10T10:10:54.116Z,71.08
2018-05-10T10:11:54.040Z,70.3
2018-05-10T10:12:54.286Z,69.73
2018-05-10T10:13:54.292Z,70.11
2018-05-10T10:14:54.035Z,69.63
2018-05-10T10:15:54.047Z,69.09
2018-05-10T10:16:54.322Z,69.18
2018-05-10T10:17:54.050Z,68.99
2018-05-10T10:18:54.059Z,68.32
2018-05-10T10:19:54.311Z,68.51
2018-05-10T10:20:54.386Z,67.83
2018-05-10T10:21:54.058Z,67.83
2018-05-10T10:53:12.065Z,53.96
2018-05-10T10:54:11.223Z,54.16
2018-05-10T10:55:11.198Z,53.77
2018-05-10T10:56:11.217Z,53.87
2018-05-10T10:57:11.209Z,53.31
2018-05-10T10:58:11.199Z,53.39
2018-05-10T10:59:11.199Z,53.58
2018-05-10T11:00:11.273Z,53.48
2018-05-10T11:01:11.215Z,53.48
2018-05-10T11:02:11.204Z,53.09
2018-05-10T11:03:11.216Z,53.29
2018-05-10T11:04:11.207Z,52.71
2018-05-10T11:05:11.514Z,52.45
2018-05-10T11:06:10.968Z,52.64
2018-05-10T11:07:11.213Z,53.13
2018-05-10T11:08:11.221Z,53.29
2018-05-10T11:09:11.391Z,52.55
2018-05-10T11:10:11.143Z,51.87
2018-05-10T11:11:11.240Z,52.19
2018-05-10T11:12:11.235Z,50.74
2018-05-10T11:13:10.973Z,49.77
2018-05-10T11:14:11.229Z,49.77
2018-05-10T11:15:11.149Z,49.7
2018-05-10T11:16:11.250Z,49.87
2018-05-10T11:17:11.250Z,49.7
2018-05-10T11:18:11.254Z,49.41
2018-05-10T11:19:10.991Z,49.32
2018-05-10T11:20:11.159Z,49.12
2018-05-10T11:21:11.263Z,49.12
2018-05-10T11:22:11.280Z,49.15
2018-05-10T11:23:14.476Z,49.12
2018-05-10T11:24:11.286Z,49.34
2018-05-10T11:25:11.056Z,49.15
2018-05-10T11:26:11.022Z,48.47
2018-05-10T11:27:11.036Z,48.76
2018-05-10T11:28:11.035Z,48.08
2018-05-10T11:29:11.311Z,47.89
2018-05-10T11:30:11.162Z,48.25
2018-05-10T11:31:11.316Z,49.12
2018-05-10T11:32:11.113Z,49.22
2018-05-10T11:33:12.685Z,48.64
2018-05-10T11:34:11.062Z,49.77
2018-05-10T11:35:11.442Z,50.45
2018-05-10T11:36:11.438Z,50.16
2018-05-10T11:37:11.437Z,50.84
2018-05-10T11:38:11.328Z,51.22
2018-05-10T11:39:11.516Z,51.61
2018-05-10T11:40:11.325Z,52.09
2018-05-10T11:41:11.085Z,51.61
2018-05-10T11:42:11.351Z,51.8
2018-05-10T11:43:11.097Z,52.76
2018-05-10T11:44:11.360Z,52.73
2018-05-10T11:45:11.461Z,53.51
2018-05-10T11:46:11.395Z,53.51
2018-05-10T11:47:11.393Z,53.13
2018-05-10T11:48:11.114Z,53.7
2018-05-10T11:49:11.126Z,53.31
2018-05-10T11:50:11.275Z,53.7
2018-05-10T11:51:11.125Z,53.7
2018-05-10T11:52:11.133Z,53.53
2018-05-10T11:53:11.138Z,53.83
2018-05-10T11:54:13.305Z,54.11
2018-05-10T11:55:11.366Z,54.57
2018-05-10T11:56:11.425Z,54.96
2018-05-10T11:57:11.165Z,54.28
2018-05-10T11:58:11.425Z,54.21
2018-05-10T11:59:11.436Z,54.66
2018-05-10T12:00:11.235Z,54.86
2018-05-10T12:01:11.432Z,55.54
2018-05-10T12:02:11.448Z,55.54
2018-05-10T12:03:11.440Z,55.63
2018-05-10T12:04:11.454Z,56.21
2018-05-10T12:05:11.563Z,56.01
2018-05-10T12:06:11.591Z,55.92
2018-05-10T12:07:11.199Z,56.59
2018-05-10T12:08:11.209Z,56.11
2018-05-10T12:09:11.215Z,56.49
2018-05-10T12:10:12.257Z,56.04
2018-05-10T12:11:11.325Z,55.76
2018-05-10T12:12:11.234Z,55.73
2018-05-10T12:13:11.494Z,56.4
2018-05-10T12:14:11.232Z,56.88
2018-05-10T12:15:11.382Z,56.69
2018-05-10T12:16:11.491Z,56.49
2018-05-10T12:17:11.501Z,57.07
2018-05-10T12:18:11.244Z,56.79
2018-05-10T12:19:11.308Z,57.46
2018-05-10T12:20:11.716Z,57.46
2018-05-10T12:21:11.251Z,57.27
2018-05-10T12:22:11.519Z,56.88
2018-05-10T12:23:11.518Z,56.59
2018-05-10T12:24:11.268Z,56.88
2018-05-10T12:25:11.741Z,56.69
2018-05-10T12:26:11.528Z,56.98
2018-05-10T12:27:11.282Z,57.07
2018-05-10T12:28:11.285Z,57.37
2018-05-10T12:29:11.552Z,57.37
2018-05-10T12:30:11.516Z,57.07
2018-05-10T12:31:11.546Z,56.98
2018-05-10T12:32:11.633Z,57.27
2018-05-10T12:33:11.556Z,57.37
2018-05-10T12:34:11.558Z,57.56
2018-05-10T12:35:11.372Z,58.2
2018-05-10T12:36:11.311Z,57.53
2018-05-10T12:37:11.585Z,57.37
2018-05-10T12:38:11.323Z,57.07
2018-05-10T12:39:11.588Z,56.69
2018-05-10T12:40:11.412Z,56.4
2018-05-10T12:41:11.598Z,57.17
2018-05-10T12:42:11.336Z,56.69
2018-05-10T12:43:11.334Z,56.33
2018-05-10T12:44:11.356Z,56.14
2018-05-10T12:45:11.694Z,56.81
2018-05-10T12:46:11.609Z,56.72
2018-05-10T12:47:11.610Z,55.36
2018-05-10T12:48:11.622Z,55.18
2018-05-10T12:49:11.620Z,55.49
2018-05-10T12:50:11.453Z,55.3
2018-05-10T12:51:11.389Z,56.07
2018-05-10T12:52:11.673Z,55.98
2018-05-10T12:53:11.639Z,55.94
2018-05-10T12:54:11.670Z,55.46
2018-05-10T12:55:11.479Z,55.18
2018-05-10T12:56:11.524Z,54.6
2018-05-10T12:57:11.391Z,54.69
2018-05-10T12:58:11.658Z,55.08
2018-05-10T12:59:11.660Z,55.76
2018-05-10T13:00:11.663Z,56.4
2018-05-10T13:01:11.678Z,56.79
2018-05-10T13:02:11.673Z,56.98
2018-05-10T13:03:11.684Z,57.46
2018-05-10T13:04:11.693Z,58.81
2018-05-10T13:05:11.935Z,58.2
2018-05-10T13:06:11.688Z,58.59
2018-05-10T13:07:11.687Z,59.27
2018-05-10T13:08:11.697Z,59.94
2018-05-10T13:09:11.693Z,60.61
2018-05-10T13:10:11.939Z,62.12
2018-05-10T13:11:11.705Z,62.6
2018-05-10T13:12:11.710Z,62.48
2018-05-10T13:13:11.463Z,63.15
2018-05-10T13:14:11.465Z,63.44
2018-05-10T13:15:11.517Z,63.44
2018-05-10T13:16:11.760Z,63.82
2018-05-10T13:17:11.744Z,63.92
2018-05-10T13:18:11.730Z,64.31
2018-05-10T13:19:11.736Z,64.95
2018-05-10T13:20:11.975Z,65.24
2018-05-10T13:21:11.742Z,64.66
2018-05-10T13:22:11.742Z,64.56
2018-05-10T13:23:11.750Z,64.66
2018-05-10T13:24:11.485Z,64.66
2018-05-10T13:25:14.218Z,63.7
2018-05-10T13:26:11.497Z,64.08
2018-05-10T13:27:11.850Z,64.63
2018-05-10T13:28:11.765Z,65.2
2018-05-10T13:29:11.759Z,65.24
2018-05-10T13:30:11.735Z,64.92
2018-05-10T13:31:11.783Z,64.82
2018-05-10T13:32:11.777Z,64.92
2018-05-10T13:33:11.552Z,65.2
2018-05-10T13:34:11.772Z,65.11
2018-05-10T13:35:12.001Z,65.2